sensor_id;sensor_type;location;lat;lon;timestamp;temperature;humidity
64937;SHT30;51452;47.698;19.050;2023-08-24T00:00:11;24.82;69.82
64937;SHT30;51452;47.698;19.050;2023-08-24T00:02:37;24.86;69.95
64937;SHT30;51452;47.698;19.050;2023-08-24T00:05:03;24.84;70.02
64937;SHT30;51452;47.698;19.050;2023-08-24T00:07:29;24.86;70.04
64937;SHT30;51452;47.698;19.050;2023-08-24T00:09:54;24.81;70.17
64937;SHT30;51452;47.698;19.050;2023-08-24T00:12:20;24.75;70.33
64937;SHT30;51452;47.698;19.050;2023-08-24T00:14:45;24.72;70.46
64937;SHT30;51452;47.698;19.050;2023-08-24T00:17:10;24.74;70.31
64937;SHT30;51452;47.698;19.050;2023-08-24T00:19:36;24.71;70.32
64937;SHT30;51452;47.698;19.050;2023-08-24T00:22:01;24.72;70.46
64937;SHT30;51452;47.698;19.050;2023-08-24T00:24:27;24.71;70.39
64937;SHT30;51452;47.698;19.050;2023-08-24T00:26:52;24.61;70.58
64937;SHT30;51452;47.698;19.050;2023-08-24T00:29:17;24.65;70.64
64937;SHT30;51452;47.698;19.050;2023-08-24T00:31:43;24.68;70.39
64937;SHT30;51452;47.698;19.050;2023-08-24T00:34:08;24.64;70.28
64937;SHT30;51452;47.698;19.050;2023-08-24T00:36:34;24.64;70.14
64937;SHT30;51452;47.698;19.050;2023-08-24T00:38:59;24.68;70.26
64937;SHT30;51452;47.698;19.050;2023-08-24T00:41:26;24.68;70.22
64937;SHT30;51452;47.698;19.050;2023-08-24T00:43:51;24.63;70.59
64937;SHT30;51452;47.698;19.050;2023-08-24T00:46:17;24.58;70.66
64937;SHT30;51452;47.698;19.050;2023-08-24T00:48:43;24.50;70.90
64937;SHT30;51452;47.698;19.050;2023-08-24T00:51:09;24.43;71.20
64937;SHT30;51452;47.698;19.050;2023-08-24T00:53:34;24.38;71.37
64937;SHT30;51452;47.698;19.050;2023-08-24T00:56:01;24.37;71.58
64937;SHT30;51452;47.698;19.050;2023-08-24T00:58:27;24.36;71.77
64937;SHT30;51452;47.698;19.050;2023-08-24T01:00:53;24.30;71.90
64937;SHT30;51452;47.698;19.050;2023-08-24T01:03:22;24.31;71.63
64937;SHT30;51452;47.698;19.050;2023-08-24T01:05:48;24.33;71.79
64937;SHT30;51452;47.698;19.050;2023-08-24T01:08:13;24.31;71.84
64937;SHT30;51452;47.698;19.050;2023-08-24T01:10:56;24.26;71.87
64937;SHT30;51452;47.698;19.050;2023-08-24T01:13:53;24.06;72.36
64937;SHT30;51452;47.698;19.050;2023-08-24T01:16:25;24.09;71.99
64937;SHT30;51452;47.698;19.050;2023-08-24T01:18:58;24.10;71.88
64937;SHT30;51452;47.698;19.050;2023-08-24T01:21:26;24.18;71.95
64937;SHT30;51452;47.698;19.050;2023-08-24T01:24:17;24.13;71.93
64937;SHT30;51452;47.698;19.050;2023-08-24T01:26:44;24.18;71.79
64937;SHT30;51452;47.698;19.050;2023-08-24T01:29:11;24.17;71.92
64937;SHT30;51452;47.698;19.050;2023-08-24T01:31:36;24.16;72.03
64937;SHT30;51452;47.698;19.050;2023-08-24T01:34:03;24.17;71.98
64937;SHT30;51452;47.698;19.050;2023-08-24T01:36:28;24.18;72.05
64937;SHT30;51452;47.698;19.050;2023-08-24T01:39:02;24.16;72.19
64937;SHT30;51452;47.698;19.050;2023-08-24T01:41:36;24.16;72.11
64937;SHT30;51452;47.698;19.050;2023-08-24T01:44:08;24.16;72.16
64937;SHT30;51452;47.698;19.050;2023-08-24T01:46:35;24.12;72.24
64937;SHT30;51452;47.698;19.050;2023-08-24T01:49:02;24.16;72.20
64937;SHT30;51452;47.698;19.050;2023-08-24T01:51:29;24.16;72.20
64937;SHT30;51452;47.698;19.050;2023-08-24T01:53:56;24.23;72.24
64937;SHT30;51452;47.698;19.050;2023-08-24T01:56:22;24.20;72.33
64937;SHT30;51452;47.698;19.050;2023-08-24T01:58:48;24.21;72.29
64937;SHT30;51452;47.698;19.050;2023-08-24T02:01:13;24.18;72.47
64937;SHT30;51452;47.698;19.050;2023-08-24T02:03:39;24.21;72.46
64937;SHT30;51452;47.698;19.050;2023-08-24T02:06:04;24.20;72.68
64937;SHT30;51452;47.698;19.050;2023-08-24T02:08:32;24.23;72.85
64937;SHT30;51452;47.698;19.050;2023-08-24T02:10:57;24.16;72.83
64937;SHT30;51452;47.698;19.050;2023-08-24T02:13:23;24.20;72.78
64937;SHT30;51452;47.698;19.050;2023-08-24T02:15:48;24.14;73.03
64937;SHT30;51452;47.698;19.050;2023-08-24T02:18:14;24.05;73.11
64937;SHT30;51452;47.698;19.050;2023-08-24T02:20:39;23.99;73.22
64937;SHT30;51452;47.698;19.050;2023-08-24T02:23:04;23.96;73.42
64937;SHT30;51452;47.698;19.050;2023-08-24T02:25:30;23.89;73.27
64937;SHT30;51452;47.698;19.050;2023-08-24T02:27:56;23.93;73.30
64937;SHT30;51452;47.698;19.050;2023-08-24T02:30:21;23.96;73.18
64937;SHT30;51452;47.698;19.050;2023-08-24T02:32:46;23.95;73.55
64937;SHT30;51452;47.698;19.050;2023-08-24T02:35:12;23.93;73.84
64937;SHT30;51452;47.698;19.050;2023-08-24T02:37:37;24.00;73.45
64937;SHT30;51452;47.698;19.050;2023-08-24T02:40:03;23.96;73.63
64937;SHT30;51452;47.698;19.050;2023-08-24T02:42:33;23.92;73.77
64937;SHT30;51452;47.698;19.050;2023-08-24T02:44:58;23.90;74.11
64937;SHT30;51452;47.698;19.050;2023-08-24T02:47:24;23.90;74.12
64937;SHT30;51452;47.698;19.050;2023-08-24T02:49:49;23.87;74.39
64937;SHT30;51452;47.698;19.050;2023-08-24T02:52:14;23.87;74.39
64937;SHT30;51452;47.698;19.050;2023-08-24T02:54:40;23.86;74.28
64937;SHT30;51452;47.698;19.050;2023-08-24T02:57:05;23.86;74.29
64937;SHT30;51452;47.698;19.050;2023-08-24T02:59:30;23.85;74.35
64937;SHT30;51452;47.698;19.050;2023-08-24T03:01:56;23.83;74.40
64937;SHT30;51452;47.698;19.050;2023-08-24T03:04:22;23.75;74.78
64937;SHT30;51452;47.698;19.050;2023-08-24T03:06:48;23.76;74.74
64937;SHT30;51452;47.698;19.050;2023-08-24T03:09:13;23.70;74.94
64937;SHT30;51452;47.698;19.050;2023-08-24T03:11:39;23.67;75.04
64937;SHT30;51452;47.698;19.050;2023-08-24T03:14:04;23.67;75.08
64937;SHT30;51452;47.698;19.050;2023-08-24T03:16:29;23.66;75.12
64937;SHT30;51452;47.698;19.050;2023-08-24T03:18:55;23.66;75.14
64937;SHT30;51452;47.698;19.050;2023-08-24T03:21:20;23.63;75.29
64937;SHT30;51452;47.698;19.050;2023-08-24T03:23:45;23.63;75.05
64937;SHT30;51452;47.698;19.050;2023-08-24T03:26:11;23.62;75.11
64937;SHT30;51452;47.698;19.050;2023-08-24T03:28:36;23.63;75.17
64937;SHT30;51452;47.698;19.050;2023-08-24T03:31:02;23.58;75.31
64937;SHT30;51452;47.698;19.050;2023-08-24T03:33:28;23.61;75.33
64937;SHT30;51452;47.698;19.050;2023-08-24T03:35:54;23.61;75.42
64937;SHT30;51452;47.698;19.050;2023-08-24T03:38:19;23.59;75.54
64937;SHT30;51452;47.698;19.050;2023-08-24T03:40:44;23.61;75.59
64937;SHT30;51452;47.698;19.050;2023-08-24T03:43:10;23.58;75.52
64937;SHT30;51452;47.698;19.050;2023-08-24T03:45:36;23.55;75.46
64937;SHT30;51452;47.698;19.050;2023-08-24T03:48:02;23.58;75.45
64937;SHT30;51452;47.698;19.050;2023-08-24T03:50:27;23.54;75.59
64937;SHT30;51452;47.698;19.050;2023-08-24T03:52:53;23.56;75.41
64937;SHT30;51452;47.698;19.050;2023-08-24T03:55:20;23.55;74.92
64937;SHT30;51452;47.698;19.050;2023-08-24T03:57:45;23.46;75.33
64937;SHT30;51452;47.698;19.050;2023-08-24T04:00:11;23.45;75.26
64937;SHT30;51452;47.698;19.050;2023-08-24T04:02:46;23.44;75.05
64937;SHT30;51452;47.698;19.050;2023-08-24T04:05:11;23.45;74.84
64937;SHT30;51452;47.698;19.050;2023-08-24T04:07:37;23.45;74.73
64937;SHT30;51452;47.698;19.050;2023-08-24T04:10:03;23.38;74.70
64937;SHT30;51452;47.698;19.050;2023-08-24T04:12:30;23.38;74.76
64937;SHT30;51452;47.698;19.050;2023-08-24T04:14:56;23.37;74.76
64937;SHT30;51452;47.698;19.050;2023-08-24T04:17:23;23.28;74.94
64937;SHT30;51452;47.698;19.050;2023-08-24T04:19:48;23.25;74.95
64937;SHT30;51452;47.698;19.050;2023-08-24T04:22:13;23.14;75.76
64937;SHT30;51452;47.698;19.050;2023-08-24T04:24:39;23.11;76.24
64937;SHT30;51452;47.698;19.050;2023-08-24T04:27:04;23.10;76.36
64937;SHT30;51452;47.698;19.050;2023-08-24T04:29:30;23.15;75.98
64937;SHT30;51452;47.698;19.050;2023-08-24T04:31:55;23.08;76.32
64937;SHT30;51452;47.698;19.050;2023-08-24T04:34:20;23.15;75.89
64937;SHT30;51452;47.698;19.050;2023-08-24T04:36:46;23.19;76.13
64937;SHT30;51452;47.698;19.050;2023-08-24T04:39:11;23.22;76.54
64937;SHT30;51452;47.698;19.050;2023-08-24T04:41:37;23.27;76.63
64937;SHT30;51452;47.698;19.050;2023-08-24T04:44:02;23.35;76.78
64937;SHT30;51452;47.698;19.050;2023-08-24T04:46:27;23.39;76.86
64937;SHT30;51452;47.698;19.050;2023-08-24T04:48:53;23.38;76.84
64937;SHT30;51452;47.698;19.050;2023-08-24T04:51:18;23.44;76.86
64937;SHT30;51452;47.698;19.050;2023-08-24T04:53:44;23.45;77.19
64937;SHT30;51452;47.698;19.050;2023-08-24T04:56:09;23.52;77.08
64937;SHT30;51452;47.698;19.050;2023-08-24T04:58:34;23.59;76.75
64937;SHT30;51452;47.698;19.050;2023-08-24T05:01:00;23.56;76.13
64937;SHT30;51452;47.698;19.050;2023-08-24T05:03:25;23.62;76.20
64937;SHT30;51452;47.698;19.050;2023-08-24T05:05:51;23.63;76.60
64937;SHT30;51452;47.698;19.050;2023-08-24T05:08:17;23.75;76.20
64937;SHT30;51452;47.698;19.050;2023-08-24T05:10:43;23.82;76.05
64937;SHT30;51452;47.698;19.050;2023-08-24T05:13:08;23.83;76.06
64937;SHT30;51452;47.698;19.050;2023-08-24T05:15:34;23.89;75.95
64937;SHT30;51452;47.698;19.050;2023-08-24T05:17:59;23.97;75.61
64937;SHT30;51452;47.698;19.050;2023-08-24T05:20:27;23.99;74.85
64937;SHT30;51452;47.698;19.050;2023-08-24T05:22:52;24.06;75.04
64937;SHT30;51452;47.698;19.050;2023-08-24T05:25:20;24.07;75.21
64937;SHT30;51452;47.698;19.050;2023-08-24T05:27:46;24.14;75.48
64937;SHT30;51452;47.698;19.050;2023-08-24T05:30:12;24.18;75.27
64937;SHT30;51452;47.698;19.050;2023-08-24T05:32:37;24.24;74.45
64937;SHT30;51452;47.698;19.050;2023-08-24T05:35:07;24.33;73.88
64937;SHT30;51452;47.698;19.050;2023-08-24T05:37:33;24.30;73.84
64937;SHT30;51452;47.698;19.050;2023-08-24T05:40:02;24.41;73.65
64937;SHT30;51452;47.698;19.050;2023-08-24T05:42:27;24.48;74.25
64937;SHT30;51452;47.698;19.050;2023-08-24T05:44:53;24.54;73.82
64937;SHT30;51452;47.698;19.050;2023-08-24T05:47:19;24.53;74.00
64937;SHT30;51452;47.698;19.050;2023-08-24T05:49:44;24.58;74.28
64937;SHT30;51452;47.698;19.050;2023-08-24T05:52:09;24.64;73.59
64937;SHT30;51452;47.698;19.050;2023-08-24T05:54:38;24.58;73.32
64937;SHT30;51452;47.698;19.050;2023-08-24T05:57:04;24.68;72.90
64937;SHT30;51452;47.698;19.050;2023-08-24T05:59:31;24.67;72.58
64937;SHT30;51452;47.698;19.050;2023-08-24T06:01:57;24.78;72.96
64937;SHT30;51452;47.698;19.050;2023-08-24T06:04:22;24.85;72.58
64937;SHT30;51452;47.698;19.050;2023-08-24T06:06:47;24.91;73.00
64937;SHT30;51452;47.698;19.050;2023-08-24T06:09:13;25.02;72.23
64937;SHT30;51452;47.698;19.050;2023-08-24T06:11:40;25.06;72.21
64937;SHT30;51452;47.698;19.050;2023-08-24T06:14:06;25.15;71.79
64937;SHT30;51452;47.698;19.050;2023-08-24T06:16:31;25.23;71.72
64937;SHT30;51452;47.698;19.050;2023-08-24T06:18:56;25.25;71.54
64937;SHT30;51452;47.698;19.050;2023-08-24T06:21:22;25.29;71.14
64937;SHT30;51452;47.698;19.050;2023-08-24T06:23:47;25.27;71.30
64937;SHT30;51452;47.698;19.050;2023-08-24T06:26:13;25.30;70.93
64937;SHT30;51452;47.698;19.050;2023-08-24T06:28:39;25.40;71.09
64937;SHT30;51452;47.698;19.050;2023-08-24T06:31:05;25.33;71.07
64937;SHT30;51452;47.698;19.050;2023-08-24T06:33:36;25.40;70.94
64937;SHT30;51452;47.698;19.050;2023-08-24T06:36:03;25.54;70.90
64937;SHT30;51452;47.698;19.050;2023-08-24T06:38:32;25.50;71.22
64937;SHT30;51452;47.698;19.050;2023-08-24T06:40:58;25.60;70.53
64937;SHT30;51452;47.698;19.050;2023-08-24T06:43:25;25.66;70.24
64937;SHT30;51452;47.698;19.050;2023-08-24T06:45:50;25.77;70.63
64937;SHT30;51452;47.698;19.050;2023-08-24T06:48:15;25.74;70.10
64937;SHT30;51452;47.698;19.050;2023-08-24T06:50:41;25.81;70.37
64937;SHT30;51452;47.698;19.050;2023-08-24T06:53:07;25.83;69.84
64937;SHT30;51452;47.698;19.050;2023-08-24T06:55:32;25.90;70.63
64937;SHT30;51452;47.698;19.050;2023-08-24T06:57:57;25.93;70.05
64937;SHT30;51452;47.698;19.050;2023-08-24T07:00:23;25.97;70.69
64937;SHT30;51452;47.698;19.050;2023-08-24T07:02:50;26.04;70.98
64937;SHT30;51452;47.698;19.050;2023-08-24T07:05:16;25.93;70.18
64937;SHT30;51452;47.698;19.050;2023-08-24T07:07:45;26.04;70.51
64937;SHT30;51452;47.698;19.050;2023-08-24T07:10:11;26.07;70.94
64937;SHT30;51452;47.698;19.050;2023-08-24T07:12:37;26.15;70.16
64937;SHT30;51452;47.698;19.050;2023-08-24T07:15:05;26.21;69.72
64937;SHT30;51452;47.698;19.050;2023-08-24T07:17:30;26.09;70.43
64937;SHT30;51452;47.698;19.050;2023-08-24T07:19:56;26.17;70.13
64937;SHT30;51452;47.698;19.050;2023-08-24T07:22:21;26.25;70.15
64937;SHT30;51452;47.698;19.050;2023-08-24T07:24:47;26.38;69.69
64937;SHT30;51452;47.698;19.050;2023-08-24T07:27:17;26.48;69.19
64937;SHT30;51452;47.698;19.050;2023-08-24T07:29:43;26.56;68.62
64937;SHT30;51452;47.698;19.050;2023-08-24T07:32:08;26.62;68.86
64937;SHT30;51452;47.698;19.050;2023-08-24T07:34:34;26.56;68.73
64937;SHT30;51452;47.698;19.050;2023-08-24T07:36:59;26.59;69.00
64937;SHT30;51452;47.698;19.050;2023-08-24T07:39:25;26.57;68.91
64937;SHT30;51452;47.698;19.050;2023-08-24T07:41:51;26.63;69.29
64937;SHT30;51452;47.698;19.050;2023-08-24T07:44:16;26.76;68.67
64937;SHT30;51452;47.698;19.050;2023-08-24T07:46:42;26.78;67.66
64937;SHT30;51452;47.698;19.050;2023-08-24T07:49:07;26.93;67.36
64937;SHT30;51452;47.698;19.050;2023-08-24T07:51:33;26.86;67.91
64937;SHT30;51452;47.698;19.050;2023-08-24T07:53:59;26.93;67.46
64937;SHT30;51452;47.698;19.050;2023-08-24T07:56:24;27.03;67.99
64937;SHT30;51452;47.698;19.050;2023-08-24T07:58:50;27.14;67.08
64937;SHT30;51452;47.698;19.050;2023-08-24T08:01:15;27.13;66.90
64937;SHT30;51452;47.698;19.050;2023-08-24T08:03:41;27.20;65.44
64937;SHT30;51452;47.698;19.050;2023-08-24T08:06:06;27.17;65.39
64937;SHT30;51452;47.698;19.050;2023-08-24T08:08:31;27.31;63.14
64937;SHT30;51452;47.698;19.050;2023-08-24T08:11:01;27.34;64.41
64937;SHT30;51452;47.698;19.050;2023-08-24T08:13:28;27.47;64.45
64937;SHT30;51452;47.698;19.050;2023-08-24T08:15:53;27.44;63.11
64937;SHT30;51452;47.698;19.050;2023-08-24T08:18:19;27.34;61.99
64937;SHT30;51452;47.698;19.050;2023-08-24T08:20:45;27.45;62.52
64937;SHT30;51452;47.698;19.050;2023-08-24T08:23:10;27.51;64.19
64937;SHT30;51452;47.698;19.050;2023-08-24T08:25:36;27.59;64.78
64937;SHT30;51452;47.698;19.050;2023-08-24T08:28:01;27.71;65.91
64937;SHT30;51452;47.698;19.050;2023-08-24T08:30:26;27.72;65.82
64937;SHT30;51452;47.698;19.050;2023-08-24T08:32:52;27.80;66.12
64937;SHT30;51452;47.698;19.050;2023-08-24T08:35:18;27.85;64.99
64937;SHT30;51452;47.698;19.050;2023-08-24T08:37:44;27.92;64.23
64937;SHT30;51452;47.698;19.050;2023-08-24T08:40:11;27.99;64.82
64937;SHT30;51452;47.698;19.050;2023-08-24T08:42:36;27.91;64.24
64937;SHT30;51452;47.698;19.050;2023-08-24T08:45:04;27.99;63.12
64937;SHT30;51452;47.698;19.050;2023-08-24T08:47:33;28.04;64.24
64937;SHT30;51452;47.698;19.050;2023-08-24T08:50:01;27.91;63.75
64937;SHT30;51452;47.698;19.050;2023-08-24T08:52:28;27.86;63.94
64937;SHT30;51452;47.698;19.050;2023-08-24T08:54:53;27.88;64.82
64937;SHT30;51452;47.698;19.050;2023-08-24T08:57:21;28.05;64.41
64937;SHT30;51452;47.698;19.050;2023-08-24T08:59:48;28.08;63.78
64937;SHT30;51452;47.698;19.050;2023-08-24T09:02:19;28.08;64.12
64937;SHT30;51452;47.698;19.050;2023-08-24T09:04:45;28.13;62.65
64937;SHT30;51452;47.698;19.050;2023-08-24T09:07:13;28.22;63.20
64937;SHT30;51452;47.698;19.050;2023-08-24T09:09:39;27.91;62.30
64937;SHT30;51452;47.698;19.050;2023-08-24T09:12:08;27.84;62.89
64937;SHT30;51452;47.698;19.050;2023-08-24T09:14:33;27.74;63.57
64937;SHT30;51452;47.698;19.050;2023-08-24T09:16:59;27.94;63.26
64937;SHT30;51452;47.698;19.050;2023-08-24T09:19:32;27.95;60.14
64937;SHT30;51452;47.698;19.050;2023-08-24T09:21:58;28.10;61.33
64937;SHT30;51452;47.698;19.050;2023-08-24T09:24:34;28.17;60.62
64937;SHT30;51452;47.698;19.050;2023-08-24T09:27:03;28.27;58.14
64937;SHT30;51452;47.698;19.050;2023-08-24T09:29:36;28.31;58.33
64937;SHT30;51452;47.698;19.050;2023-08-24T09:32:01;28.32;57.73
64937;SHT30;51452;47.698;19.050;2023-08-24T09:34:27;28.37;57.64
64937;SHT30;51452;47.698;19.050;2023-08-24T09:36:53;28.42;57.01
64937;SHT30;51452;47.698;19.050;2023-08-24T09:39:18;28.35;57.89
64937;SHT30;51452;47.698;19.050;2023-08-24T09:41:49;28.45;58.12
64937;SHT30;51452;47.698;19.050;2023-08-24T09:44:17;28.63;54.63
64937;SHT30;51452;47.698;19.050;2023-08-24T09:46:42;28.67;56.45
64937;SHT30;51452;47.698;19.050;2023-08-24T09:49:11;28.73;56.30
64937;SHT30;51452;47.698;19.050;2023-08-24T09:51:38;28.83;56.32
64937;SHT30;51452;47.698;19.050;2023-08-24T09:54:08;28.76;53.78
64937;SHT30;51452;47.698;19.050;2023-08-24T09:56:36;28.80;54.08
64937;SHT30;51452;47.698;19.050;2023-08-24T09:59:14;28.84;54.49
64937;SHT30;51452;47.698;19.050;2023-08-24T10:01:44;28.90;52.88
64937;SHT30;51452;47.698;19.050;2023-08-24T10:04:12;29.04;53.24
64937;SHT30;51452;47.698;19.050;2023-08-24T10:06:39;29.03;52.50
64937;SHT30;51452;47.698;19.050;2023-08-24T10:09:08;29.04;52.32
64937;SHT30;51452;47.698;19.050;2023-08-24T10:11:39;28.90;49.37
64937;SHT30;51452;47.698;19.050;2023-08-24T10:14:15;28.98;49.40
64937;SHT30;51452;47.698;19.050;2023-08-24T10:16:43;29.05;50.28
64937;SHT30;51452;47.698;19.050;2023-08-24T10:19:09;29.04;50.22
64937;SHT30;51452;47.698;19.050;2023-08-24T10:21:37;29.04;53.54
64937;SHT30;51452;47.698;19.050;2023-08-24T10:24:02;29.08;48.52
64937;SHT30;51452;47.698;19.050;2023-08-24T10:26:28;29.11;49.97
64937;SHT30;51452;47.698;19.050;2023-08-24T10:28:54;29.25;49.61
64937;SHT30;51452;47.698;19.050;2023-08-24T10:31:20;29.29;48.28
64937;SHT30;51452;47.698;19.050;2023-08-24T10:33:47;29.25;51.73
64937;SHT30;51452;47.698;19.050;2023-08-24T10:36:13;29.35;49.83
64937;SHT30;51452;47.698;19.050;2023-08-24T10:38:43;29.29;47.31
64937;SHT30;51452;47.698;19.050;2023-08-24T10:41:09;29.22;50.68
64937;SHT30;51452;47.698;19.050;2023-08-24T10:43:39;29.24;48.31
64937;SHT30;51452;47.698;19.050;2023-08-24T10:46:11;29.25;45.72
64937;SHT30;51452;47.698;19.050;2023-08-24T10:53:59;29.48;46.40
64937;SHT30;51452;47.698;19.050;2023-08-24T10:56:35;29.52;46.53
64937;SHT30;51452;47.698;19.050;2023-08-24T10:59:16;29.44;44.81
64937;SHT30;51452;47.698;19.050;2023-08-24T11:02:03;29.46;47.72
64937;SHT30;51452;47.698;19.050;2023-08-24T11:04:29;29.55;45.91
64937;SHT30;51452;47.698;19.050;2023-08-24T11:06:56;29.73;49.04
64937;SHT30;51452;47.698;19.050;2023-08-24T11:09:23;29.80;47.59
64937;SHT30;51452;47.698;19.050;2023-08-24T11:12:03;29.83;46.42
64937;SHT30;51452;47.698;19.050;2023-08-24T11:14:30;29.89;46.48
64937;SHT30;51452;47.698;19.050;2023-08-24T11:17:01;29.80;44.22
64937;SHT30;51452;47.698;19.050;2023-08-24T11:19:27;29.87;46.69
64937;SHT30;51452;47.698;19.050;2023-08-24T11:21:53;29.87;46.91
64937;SHT30;51452;47.698;19.050;2023-08-24T11:24:18;29.89;46.70
64937;SHT30;51452;47.698;19.050;2023-08-24T11:26:48;29.80;48.27
64937;SHT30;51452;47.698;19.050;2023-08-24T11:29:14;29.93;45.67
64937;SHT30;51452;47.698;19.050;2023-08-24T11:31:40;29.85;46.39
64937;SHT30;51452;47.698;19.050;2023-08-24T11:34:06;29.94;46.52
64937;SHT30;51452;47.698;19.050;2023-08-24T11:36:42;30.00;46.22
64937;SHT30;51452;47.698;19.050;2023-08-24T11:39:17;30.04;46.63
64937;SHT30;51452;47.698;19.050;2023-08-24T11:41:58;30.03;46.68
64937;SHT30;51452;47.698;19.050;2023-08-24T11:44:24;30.10;45.27
64937;SHT30;51452;47.698;19.050;2023-08-24T11:46:50;30.14;43.55
64937;SHT30;51452;47.698;19.050;2023-08-24T11:49:15;30.20;44.17
64937;SHT30;51452;47.698;19.050;2023-08-24T11:51:41;30.06;46.18
64937;SHT30;51452;47.698;19.050;2023-08-24T11:54:06;30.10;46.31
64937;SHT30;51452;47.698;19.050;2023-08-24T11:56:39;30.09;46.11
64937;SHT30;51452;47.698;19.050;2023-08-24T11:59:05;30.18;47.09
64937;SHT30;51452;47.698;19.050;2023-08-24T12:01:32;30.27;46.11
64937;SHT30;51452;47.698;19.050;2023-08-24T12:03:58;30.34;46.05
64937;SHT30;51452;47.698;19.050;2023-08-24T12:06:26;30.33;44.03
64937;SHT30;51452;47.698;19.050;2023-08-24T12:08:52;30.38;44.70
64937;SHT30;51452;47.698;19.050;2023-08-24T12:11:19;30.33;41.39
64937;SHT30;51452;47.698;19.050;2023-08-24T12:13:47;30.30;43.64
64937;SHT30;51452;47.698;19.050;2023-08-24T12:16:15;30.33;40.62
64937;SHT30;51452;47.698;19.050;2023-08-24T12:18:52;30.40;39.79
64937;SHT30;51452;47.698;19.050;2023-08-24T12:21:18;30.49;40.95
64937;SHT30;51452;47.698;19.050;2023-08-24T12:23:45;30.48;41.54
64937;SHT30;51452;47.698;19.050;2023-08-24T12:26:17;30.38;40.13
64937;SHT30;51452;47.698;19.050;2023-08-24T12:28:43;30.34;40.27
64937;SHT30;51452;47.698;19.050;2023-08-24T12:31:08;30.57;40.61
64937;SHT30;51452;47.698;19.050;2023-08-24T12:33:34;30.57;43.58
64937;SHT30;51452;47.698;19.050;2023-08-24T12:35:59;30.49;43.64
64937;SHT30;51452;47.698;19.050;2023-08-24T12:38:26;30.65;40.37
64937;SHT30;51452;47.698;19.050;2023-08-24T12:40:52;30.64;42.27
64937;SHT30;51452;47.698;19.050;2023-08-24T12:43:18;30.65;41.46
64937;SHT30;51452;47.698;19.050;2023-08-24T12:45:43;30.69;40.42
64937;SHT30;51452;47.698;19.050;2023-08-24T12:48:09;30.65;41.78
64937;SHT30;51452;47.698;19.050;2023-08-24T12:50:36;30.60;42.56
64937;SHT30;51452;47.698;19.050;2023-08-24T12:53:01;30.65;39.26
64937;SHT30;51452;47.698;19.050;2023-08-24T12:55:29;30.75;40.45
64937;SHT30;51452;47.698;19.050;2023-08-24T12:57:54;30.67;41.12
64937;SHT30;51452;47.698;19.050;2023-08-24T13:00:20;30.72;41.98
64937;SHT30;51452;47.698;19.050;2023-08-24T13:02:47;30.81;40.35
64937;SHT30;51452;47.698;19.050;2023-08-24T13:05:13;30.78;43.07
64937;SHT30;51452;47.698;19.050;2023-08-24T13:07:38;30.94;41.01
64937;SHT30;51452;47.698;19.050;2023-08-24T13:10:04;30.91;38.92
64937;SHT30;51452;47.698;19.050;2023-08-24T13:12:31;30.88;39.64
64937;SHT30;51452;47.698;19.050;2023-08-24T13:14:57;30.94;39.29
64937;SHT30;51452;47.698;19.050;2023-08-24T13:17:22;30.81;39.25
64937;SHT30;51452;47.698;19.050;2023-08-24T13:19:48;30.88;40.31
64937;SHT30;51452;47.698;19.050;2023-08-24T13:22:16;30.99;42.84
64937;SHT30;51452;47.698;19.050;2023-08-24T13:24:42;30.96;41.90
64937;SHT30;51452;47.698;19.050;2023-08-24T13:27:09;30.92;39.22
64937;SHT30;51452;47.698;19.050;2023-08-24T13:29:39;30.94;41.13
64937;SHT30;51452;47.698;19.050;2023-08-24T13:32:05;30.99;40.69
64937;SHT30;51452;47.698;19.050;2023-08-24T13:34:31;31.15;40.46
64937;SHT30;51452;47.698;19.050;2023-08-24T13:36:57;31.11;40.48
64937;SHT30;51452;47.698;19.050;2023-08-24T13:39:25;30.99;39.82
64937;SHT30;51452;47.698;19.050;2023-08-24T13:41:50;31.03;41.16
64937;SHT30;51452;47.698;19.050;2023-08-24T13:44:15;31.16;40.12
64937;SHT30;51452;47.698;19.050;2023-08-24T13:46:41;31.13;38.74
64937;SHT30;51452;47.698;19.050;2023-08-24T13:49:06;31.15;42.62
64937;SHT30;51452;47.698;19.050;2023-08-24T13:51:32;31.11;41.81
64937;SHT30;51452;47.698;19.050;2023-08-24T13:53:57;31.12;41.71
64937;SHT30;51452;47.698;19.050;2023-08-24T13:56:23;31.06;42.22
64937;SHT30;51452;47.698;19.050;2023-08-24T13:58:48;31.02;39.96
64937;SHT30;51452;47.698;19.050;2023-08-24T14:01:14;31.16;38.73
64937;SHT30;51452;47.698;19.050;2023-08-24T14:03:39;31.21;39.67
64937;SHT30;51452;47.698;19.050;2023-08-24T14:06:08;31.25;39.59
64937;SHT30;51452;47.698;19.050;2023-08-24T14:08:34;31.23;38.15
64937;SHT30;51452;47.698;19.050;2023-08-24T14:10:59;31.22;38.27
64937;SHT30;51452;47.698;19.050;2023-08-24T14:13:24;31.15;42.79
64937;SHT30;51452;47.698;19.050;2023-08-24T14:15:50;31.26;39.46
64937;SHT30;51452;47.698;19.050;2023-08-24T14:18:16;31.19;38.66
64937;SHT30;51452;47.698;19.050;2023-08-24T14:20:42;31.06;36.70
64937;SHT30;51452;47.698;19.050;2023-08-24T14:23:08;31.16;37.66
64937;SHT30;51452;47.698;19.050;2023-08-24T14:25:33;31.05;41.13
64937;SHT30;51452;47.698;19.050;2023-08-24T14:27:58;31.21;42.07
64937;SHT30;51452;47.698;19.050;2023-08-24T14:30:25;31.06;39.44
64937;SHT30;51452;47.698;19.050;2023-08-24T14:32:50;31.02;40.36
64937;SHT30;51452;47.698;19.050;2023-08-24T14:35:15;30.96;38.58
64937;SHT30;51452;47.698;19.050;2023-08-24T14:37:41;30.99;40.04
64937;SHT30;51452;47.698;19.050;2023-08-24T14:40:07;31.00;40.45
64937;SHT30;51452;47.698;19.050;2023-08-24T14:42:32;30.86;40.19
64937;SHT30;51452;47.698;19.050;2023-08-24T14:44:57;30.89;41.00
64937;SHT30;51452;47.698;19.050;2023-08-24T14:47:23;30.86;39.53
64937;SHT30;51452;47.698;19.050;2023-08-24T14:49:49;30.82;38.46
64937;SHT30;51452;47.698;19.050;2023-08-24T14:52:14;30.76;38.54
64937;SHT30;51452;47.698;19.050;2023-08-24T14:54:39;30.74;41.46
64937;SHT30;51452;47.698;19.050;2023-08-24T14:57:05;30.78;41.89
64937;SHT30;51452;47.698;19.050;2023-08-24T14:59:31;30.76;41.75
64937;SHT30;51452;47.698;19.050;2023-08-24T15:01:57;30.72;40.89
64937;SHT30;51452;47.698;19.050;2023-08-24T15:04:26;30.65;39.20
64937;SHT30;51452;47.698;19.050;2023-08-24T15:06:52;30.69;41.77
64937;SHT30;51452;47.698;19.050;2023-08-24T15:09:17;30.58;41.38
64937;SHT30;51452;47.698;19.050;2023-08-24T15:11:43;30.64;43.54
64937;SHT30;51452;47.698;19.050;2023-08-24T15:14:08;30.60;40.89
64937;SHT30;51452;47.698;19.050;2023-08-24T15:16:34;30.55;40.80